sensor_id;sensor_type;location;lat;lon;timestamp;temperature;humidity
74220;DHT22;62580;54.416;11.120;2022-12-20T00:07:05;17.70;37.00
74220;DHT22;62580;54.416;11.120;2022-12-20T00:17:05;17.70;37.00
74220;DHT22;62580;54.416;11.120;2022-12-20T00:27:07;17.70;37.00
74220;DHT22;62580;54.416;11.120;2022-12-20T00:37:08;17.70;37.00
74220;DHT22;62580;54.416;11.120;2022-12-20T00:47:10;17.70;37.00
74220;DHT22;62580;54.416;11.120;2022-12-20T00:57:10;17.70;37.10
74220;DHT22;62580;54.416;11.120;2022-12-20T01:07:12;17.70;37.20
74220;DHT22;62580;54.416;11.120;2022-12-20T01:17:13;17.60;37.20
74220;DHT22;62580;54.416;11.120;2022-12-20T01:27:15;17.60;37.30
74220;DHT22;62580;54.416;11.120;2022-12-20T01:37:16;17.70;37.40
74220;DHT22;62580;54.416;11.120;2022-12-20T01:47:18;17.70;37.40
74220;DHT22;62580;54.416;11.120;2022-12-20T01:57:21;17.70;37.30
74220;DHT22;62580;54.416;11.120;2022-12-20T02:07:26;17.70;37.40
74220;DHT22;62580;54.416;11.120;2022-12-20T02:17:35;17.70;37.40
74220;DHT22;62580;54.416;11.120;2022-12-20T02:27:58;17.70;37.50
74220;DHT22;62580;54.416;11.120;2022-12-20T02:38:04;17.70;37.50
74220;DHT22;62580;54.416;11.120;2022-12-20T02:48:24;17.70;37.50
74220;DHT22;62580;54.416;11.120;2022-12-20T02:58:32;17.80;37.60
74220;DHT22;62580;54.416;11.120;2022-12-20T03:08:34;17.70;37.50
74220;DHT22;62580;54.416;11.120;2022-12-20T03:18:36;17.70;37.60
74220;DHT22;62580;54.416;11.120;2022-12-20T03:28:36;17.70;37.60
74220;DHT22;62580;54.416;11.120;2022-12-20T03:38:38;17.70;37.70
74220;DHT22;62580;54.416;11.120;2022-12-20T03:48:39;17.70;37.60
74220;DHT22;62580;54.416;11.120;2022-12-20T03:58:41;17.70;37.50
74220;DHT22;62580;54.416;11.120;2022-12-20T04:08:42;17.80;37.70
74220;DHT22;62580;54.416;11.120;2022-12-20T04:18:44;17.70;37.60
74220;DHT22;62580;54.416;11.120;2022-12-20T04:28:45;17.80;37.80
74220;DHT22;62580;54.416;11.120;2022-12-20T04:38:47;17.70;37.80
74220;DHT22;62580;54.416;11.120;2022-12-20T04:48:47;17.60;37.70
74220;DHT22;62580;54.416;11.120;2022-12-20T04:58:51;17.70;37.80
74220;DHT22;62580;54.416;11.120;2022-12-20T05:08:52;17.70;37.80
74220;DHT22;62580;54.416;11.120;2022-12-20T05:18:54;17.70;37.80
74220;DHT22;62580;54.416;11.120;2022-12-20T05:28:54;17.80;37.90
74220;DHT22;62580;54.416;11.120;2022-12-20T05:38:56;17.70;37.80
74220;DHT22;62580;54.416;11.120;2022-12-20T05:48:57;17.70;37.90
74220;DHT22;62580;54.416;11.120;2022-12-20T05:58:59;17.70;38.00
74220;DHT22;62580;54.416;11.120;2022-12-20T06:08:59;17.70;38.10
74220;DHT22;62580;54.416;11.120;2022-12-20T06:19:01;17.70;38.20
74220;DHT22;62580;54.416;11.120;2022-12-20T06:29:02;17.70;38.20
74220;DHT22;62580;54.416;11.120;2022-12-20T06:39:05;17.70;38.20
74220;DHT22;62580;54.416;11.120;2022-12-20T06:49:06;17.70;38.20
74220;DHT22;62580;54.416;11.120;2022-12-20T06:59:08;17.70;38.30
74220;DHT22;62580;54.416;11.120;2022-12-20T07:09:08;17.70;38.30
74220;DHT22;62580;54.416;11.120;2022-12-20T07:19:11;17.70;38.40
74220;DHT22;62580;54.416;11.120;2022-12-20T07:29:12;17.70;38.40
74220;DHT22;62580;54.416;11.120;2022-12-20T07:39:15;17.60;38.50
74220;DHT22;62580;54.416;11.120;2022-12-20T07:49:15;17.70;38.50
74220;DHT22;62580;54.416;11.120;2022-12-20T07:59:20;17.70;38.40
74220;DHT22;62580;54.416;11.120;2022-12-20T08:09:24;17.70;38.50
74220;DHT22;62580;54.416;11.120;2022-12-20T08:19:27;17.70;38.60
74220;DHT22;62580;54.416;11.120;2022-12-20T08:29:28;17.70;38.50
74220;DHT22;62580;54.416;11.120;2022-12-20T08:39:30;17.70;38.60
74220;DHT22;62580;54.416;11.120;2022-12-20T08:49:34;17.70;38.60
74220;DHT22;62580;54.416;11.120;2022-12-20T08:59:35;17.70;38.60
74220;DHT22;62580;54.416;11.120;2022-12-20T09:09:36;17.70;38.60
74220;DHT22;62580;54.416;11.120;2022-12-20T09:19:38;17.70;38.60
74220;DHT22;62580;54.416;11.120;2022-12-20T09:29:39;17.70;38.70
74220;DHT22;62580;54.416;11.120;2022-12-20T09:39:41;17.70;38.70
74220;DHT22;62580;54.416;11.120;2022-12-20T09:49:44;17.70;38.70
74220;DHT22;62580;54.416;11.120;2022-12-20T09:59:47;17.70;38.80
74220;DHT22;62580;54.416;11.120;2022-12-20T10:10:06;17.70;38.80
74220;DHT22;62580;54.416;11.120;2022-12-20T10:20:29;17.70;38.80
74220;DHT22;62580;54.416;11.120;2022-12-20T10:30:32;17.70;38.90
74220;DHT22;62580;54.416;11.120;2022-12-20T10:40:38;17.70;38.90
74220;DHT22;62580;54.416;11.120;2022-12-20T10:50:39;17.80;38.90
74220;DHT22;62580;54.416;11.120;2022-12-20T11:00:41;17.70;38.90
74220;DHT22;62580;54.416;11.120;2022-12-20T11:10:43;17.80;39.00
74220;DHT22;62580;54.416;11.120;2022-12-20T11:20:50;17.70;39.00
74220;DHT22;62580;54.416;11.120;2022-12-20T11:31:06;17.70;39.10
74220;DHT22;62580;54.416;11.120;2022-12-20T11:41:18;17.70;39.00
74220;DHT22;62580;54.416;11.120;2022-12-20T11:51:22;17.80;39.10
74220;DHT22;62580;54.416;11.120;2022-12-20T12:01:29;17.80;39.10
74220;DHT22;62580;54.416;11.120;2022-12-20T12:11:33;17.80;39.20
74220;DHT22;62580;54.416;11.120;2022-12-20T12:21:38;17.70;39.20
74220;DHT22;62580;54.416;11.120;2022-12-20T12:31:44;17.70;39.20
74220;DHT22;62580;54.416;11.120;2022-12-20T12:42:25;17.70;39.30
74220;DHT22;62580;54.416;11.120;2022-12-20T12:52:41;17.80;39.40
74220;DHT22;62580;54.416;11.120;2022-12-20T13:02:50;17.70;39.30
74220;DHT22;62580;54.416;11.120;2022-12-20T13:12:56;17.80;39.40
74220;DHT22;62580;54.416;11.120;2022-12-20T13:23:15;17.70;39.30
74220;DHT22;62580;54.416;11.120;2022-12-20T13:33:19;17.70;39.40
74220;DHT22;62580;54.416;11.120;2022-12-20T13:43:25;17.70;39.50
74220;DHT22;62580;54.416;11.120;2022-12-20T13:53:27;17.70;39.50
74220;DHT22;62580;54.416;11.120;2022-12-20T14:03:30;17.70;39.50
74220;DHT22;62580;54.416;11.120;2022-12-20T14:13:31;17.80;39.60
74220;DHT22;62580;54.416;11.120;2022-12-20T14:23:35;17.80;39.60
74220;DHT22;62580;54.416;11.120;2022-12-20T14:33:38;17.80;39.60
74220;DHT22;62580;54.416;11.120;2022-12-20T14:43:40;17.70;39.60
74220;DHT22;62580;54.416;11.120;2022-12-20T14:53:44;17.80;39.80
74220;DHT22;62580;54.416;11.120;2022-12-20T15:03:52;17.70;39.70
74220;DHT22;62580;54.416;11.120;2022-12-20T15:13:53;17.70;39.70
74220;DHT22;62580;54.416;11.120;2022-12-20T15:23:59;17.80;39.80
74220;DHT22;62580;54.416;11.120;2022-12-20T15:34:03;17.80;39.80
74220;DHT22;62580;54.416;11.120;2022-12-20T15:44:09;17.80;39.80
74220;DHT22;62580;54.416;11.120;2022-12-20T15:54:19;17.80;39.90
74220;DHT22;62580;54.416;11.120;2022-12-20T16:04:22;17.70;39.80
74220;DHT22;62580;54.416;11.120;2022-12-20T16:14:23;17.80;39.90
74220;DHT22;62580;54.416;11.120;2022-12-20T16:24:25;17.70;39.90
74220;DHT22;62580;54.416;11.120;2022-12-20T16:34:26;17.70;39.90
74220;DHT22;62580;54.416;11.120;2022-12-20T16:44:27;17.80;40.60
74220;DHT22;62580;54.416;11.120;2022-12-20T16:54:28;17.80;40.00
74220;DHT22;62580;54.416;11.120;2022-12-20T17:04:30;17.70;40.00
74220;DHT22;62580;54.416;11.120;2022-12-20T17:14:31;17.70;39.90
74220;DHT22;62580;54.416;11.120;2022-12-20T17:24:33;17.70;39.80
74220;DHT22;62580;54.416;11.120;2022-12-20T17:34:34;17.80;39.90
74220;DHT22;62580;54.416;11.120;2022-12-20T17:44:35;17.70;40.00
74220;DHT22;62580;54.416;11.120;2022-12-20T17:54:36;17.70;40.00
74220;DHT22;62580;54.416;11.120;2022-12-20T18:04:38;17.80;40.10
74220;DHT22;62580;54.416;11.120;2022-12-20T18:14:39;17.70;40.00
74220;DHT22;62580;54.416;11.120;2022-12-20T18:24:41;17.70;40.00
74220;DHT22;62580;54.416;11.120;2022-12-20T18:34:41;17.80;40.10
74220;DHT22;62580;54.416;11.120;2022-12-20T18:44:43;17.80;40.10
74220;DHT22;62580;54.416;11.120;2022-12-20T18:54:44;17.80;40.70
74220;DHT22;62580;54.416;11.120;2022-12-20T19:04:46;17.80;40.00
74220;DHT22;62580;54.416;11.120;2022-12-20T19:14:47;17.80;40.00
74220;DHT22;62580;54.416;11.120;2022-12-20T19:24:49;17.80;40.10
74220;DHT22;62580;54.416;11.120;2022-12-20T19:34:49;17.80;40.10
74220;DHT22;62580;54.416;11.120;2022-12-20T19:44:51;17.80;40.20
74220;DHT22;62580;54.416;11.120;2022-12-20T19:54:52;17.70;40.10
74220;DHT22;62580;54.416;11.120;2022-12-20T20:04:54;17.80;40.20
74220;DHT22;62580;54.416;11.120;2022-12-20T20:14:55;17.80;40.20
74220;DHT22;62580;54.416;11.120;2022-12-20T20:24:56;17.80;40.20
74220;DHT22;62580;54.416;11.120;2022-12-20T20:34:57;17.80;40.20
74220;DHT22;62580;54.416;11.120;2022-12-20T20:44:59;17.80;40.30
74220;DHT22;62580;54.416;11.120;2022-12-20T20:55:00;17.80;40.30
74220;DHT22;62580;54.416;11.120;2022-12-20T21:05:02;17.80;40.30
74220;DHT22;62580;54.416;11.120;2022-12-20T21:15:03;17.80;40.30
74220;DHT22;62580;54.416;11.120;2022-12-20T21:25:07;17.80;40.30
74220;DHT22;62580;54.416;11.120;2022-12-20T21:35:08;17.80;40.40
74220;DHT22;62580;54.416;11.120;2022-12-20T21:45:11;17.90;40.50
74220;DHT22;62580;54.416;11.120;2022-12-20T21:55:11;17.80;40.40
74220;DHT22;62580;54.416;11.120;2022-12-20T22:05:13;17.90;40.50
74220;DHT22;62580;54.416;11.120;2022-12-20T22:15:14;17.90;40.60
74220;DHT22;62580;54.416;11.120;2022-12-20T22:25:16;17.80;40.50
74220;DHT22;62580;54.416;11.120;2022-12-20T22:35:17;17.90;40.60
74220;DHT22;62580;54.416;11.120;2022-12-20T22:45:19;17.80;40.60
74220;DHT22;62580;54.416;11.120;2022-12-20T22:55:20;17.80;40.80
74220;DHT22;62580;54.416;11.120;2022-12-20T23:05:22;17.80;40.90
74220;DHT22;62580;54.416;11.120;2022-12-20T23:15:22;17.80;40.90
74220;DHT22;62580;54.416;11.120;2022-12-20T23:25:24;17.80;40.80
74220;DHT22;62580;54.416;11.120;2022-12-20T23:35:25;17.80;41.20
74220;DHT22;62580;54.416;11.120;2022-12-20T23:45:27;17.80;40.90
74220;DHT22;62580;54.416;11.120;2022-12-20T23:55:27;17.90;41.00
